createdAt,value
2023-03-26T00:03:05.444Z,9.20
2023-03-26T00:08:08.802Z,9.20
2023-03-26T00:13:11.361Z,9.10
2023-03-26T00:18:13.075Z,9.10
2023-03-26T00:23:14.857Z,9.10
2023-03-26T00:28:21.393Z,9.10
2023-03-26T00:33:23.420Z,9.00
2023-03-26T00:38:27.187Z,9.00
2023-03-26T00:43:32.849Z,8.90
2023-03-26T00:48:44.357Z,8.90
2023-03-26T00:53:48.756Z,8.90
2023-03-26T00:58:50.683Z,8.90
2023-03-26T01:04:08.333Z,8.80
2023-03-26T01:09:35.980Z,8.80
2023-03-26T01:14:38.680Z,8.80
2023-03-26T01:19:59.035Z,8.80
2023-03-26T01:25:00.718Z,8.70
2023-03-26T01:30:28.717Z,8.80
2023-03-26T01:35:38.975Z,8.80
2023-03-26T01:40:49.500Z,8.80
2023-03-26T01:45:52.532Z,8.90
2023-03-26T01:50:56.303Z,8.90
2023-03-26T01:56:16.667Z,8.80
2023-03-26T02:01:33.153Z,8.60
2023-03-26T02:07:05.730Z,8.70
2023-03-26T02:12:09.623Z,8.60
2023-03-26T02:17:12.102Z,8.40
2023-03-26T02:22:16.390Z,8.40
2023-03-26T02:27:18.558Z,8.40
2023-03-26T02:32:20.253Z,8.30
2023-03-26T02:37:21.957Z,8.20
2023-03-26T02:42:23.629Z,8.10
2023-03-26T02:47:25.603Z,8.10
2023-03-26T02:52:29.616Z,8.10
2023-03-26T02:57:31.389Z,8.10
2023-03-26T03:02:33.374Z,8.20
2023-03-26T03:07:37.991Z,8.30
2023-03-26T03:12:42.971Z,8.30
2023-03-26T03:17:44.664Z,8.20
2023-03-26T03:22:46.600Z,8.30
2023-03-26T03:27:48.480Z,8.00
2023-03-26T03:32:50.302Z,8.00
2023-03-26T03:37:52.095Z,8.00
2023-03-26T03:42:53.798Z,8.10
2023-03-26T03:47:55.851Z,8.30
2023-03-26T03:52:59.346Z,8.40
2023-03-26T03:58:01.102Z,8.30
2023-03-26T04:03:06.333Z,8.20
2023-03-26T04:08:08.232Z,8.00
2023-03-26T04:13:12.094Z,7.90
2023-03-26T04:18:14.346Z,7.90
2023-03-26T04:23:18.272Z,7.90
2023-03-26T04:28:32.244Z,7.90
2023-03-26T04:33:35.479Z,7.90
2023-03-26T04:38:43.058Z,7.80
2023-03-26T04:43:50.365Z,7.80
2023-03-26T04:48:53.532Z,7.80
2023-03-26T04:54:00.493Z,7.70
2023-03-26T04:59:02.878Z,7.70
2023-03-26T05:04:04.759Z,7.60
2023-03-26T05:09:06.838Z,7.80
2023-03-26T05:14:09.068Z,8.10
2023-03-26T05:19:10.864Z,8.30
2023-03-26T05:24:12.550Z,8.40
2023-03-26T05:29:17.113Z,8.50
2023-03-26T05:34:20.554Z,8.60
2023-03-26T05:39:26.169Z,8.90
2023-03-26T05:44:28.090Z,8.80
2023-03-26T05:49:29.865Z,9.00
2023-03-26T05:54:31.551Z,8.90
2023-03-26T05:59:33.304Z,9.20
2023-03-26T06:04:35.345Z,9.20
2023-03-26T06:09:38.700Z,9.20
2023-03-26T06:14:42.765Z,9.30
2023-03-26T06:19:44.547Z,9.40
2023-03-26T06:24:46.302Z,9.50
2023-03-26T06:29:48.201Z,9.60
2023-03-26T06:34:50.215Z,9.70
2023-03-26T06:39:51.975Z,9.70
2023-03-26T06:44:53.872Z,9.90
2023-03-26T06:49:55.605Z,10.10
2023-03-26T06:54:57.417Z,10.20
2023-03-26T06:59:59.116Z,10.20
2023-03-26T07:05:00.928Z,10.40
2023-03-26T07:10:02.812Z,10.50
2023-03-26T07:15:05.499Z,10.50
2023-03-26T07:20:09.094Z,10.80
2023-03-26T07:25:14.899Z,10.90
2023-03-26T07:30:19.723Z,11.00
2023-03-26T07:35:41.627Z,11.00
2023-03-26T07:40:49.086Z,11.10
2023-03-26T07:45:51.398Z,11.40
2023-03-26T07:50:54.896Z,11.20
2023-03-26T07:56:05.942Z,11.40
2023-03-26T08:01:45.513Z,11.40
2023-03-26T08:06:59.501Z,11.80
2023-03-26T08:12:36.361Z,11.80
2023-03-26T08:17:42.697Z,11.90
2023-03-26T08:22:50.796Z,12.20
2023-03-26T08:28:04.194Z,12.40
2023-03-26T08:33:12.665Z,12.30
2023-03-26T08:38:17.096Z,12.20
2023-03-26T08:43:33.598Z,12.20
2023-03-26T08:49:06.286Z,12.60
2023-03-26T08:54:41.314Z,12.70
2023-03-26T09:00:20.451Z,12.80
2023-03-26T09:06:03.252Z,12.90
2023-03-26T09:11:11.001Z,13.00
2023-03-26T09:16:24.501Z,13.10
2023-03-26T09:21:54.587Z,13.00
2023-03-26T09:27:22.102Z,12.80
2023-03-26T09:32:32.814Z,12.80
2023-03-26T09:37:58.925Z,13.00
2023-03-26T09:43:25.131Z,13.20
2023-03-26T09:48:26.904Z,13.20
2023-03-26T09:53:57.901Z,13.50
2023-03-26T09:59:21.142Z,13.60
2023-03-26T10:04:29.002Z,13.60
2023-03-26T10:09:55.512Z,13.60
2023-03-26T10:15:09.208Z,14.20
2023-03-26T10:20:44.151Z,14.50
2023-03-26T10:26:09.901Z,14.00
2023-03-26T10:31:23.727Z,14.00
2023-03-26T10:36:31.248Z,14.20
2023-03-26T10:41:51.620Z,14.50
2023-03-26T10:47:14.476Z,14.50
2023-03-26T10:52:21.853Z,14.40
2023-03-26T10:57:43.923Z,14.70
2023-03-26T11:03:20.641Z,14.80
2023-03-26T11:08:31.706Z,15.00
2023-03-26T11:13:49.857Z,15.40
2023-03-26T11:19:11.626Z,15.40
2023-03-26T11:24:23.005Z,15.50
2023-03-26T11:29:33.756Z,15.20
2023-03-26T11:34:40.341Z,15.00
2023-03-26T11:39:50.928Z,14.90
2023-03-26T11:45:00.682Z,15.00
2023-03-26T11:50:03.987Z,15.10
2023-03-26T11:55:06.644Z,15.00
2023-03-26T12:00:21.203Z,14.70
2023-03-26T12:05:26.449Z,14.50
2023-03-26T12:10:38.798Z,14.10
2023-03-26T12:15:43.746Z,13.90
2023-03-26T12:20:45.750Z,13.50
2023-03-26T12:26:11.301Z,13.90
2023-03-26T12:31:18.128Z,14.20
2023-03-26T12:36:31.168Z,14.90
2023-03-26T12:42:36.680Z,14.80
2023-03-26T12:47:58.862Z,14.50
2023-03-26T12:52:41.788Z,13.50
2023-03-26T12:58:26.435Z,12.60
2023-03-26T13:03:38.520Z,12.60
2023-03-26T13:08:52.295Z,13.10
2023-03-26T13:14:11.915Z,13.30
2023-03-26T13:19:45.105Z,14.10
2023-03-26T13:24:57.575Z,14.50
2023-03-26T13:30:22.404Z,14.70
2023-03-26T13:35:54.705Z,14.20
2023-03-26T13:41:09.218Z,13.60
2023-03-26T13:46:38.641Z,13.10
2023-03-26T13:52:00.546Z,13.10
2023-03-26T13:57:31.925Z,13.10
2023-03-26T14:02:44.103Z,13.00
2023-03-26T14:08:04.246Z,12.90
2023-03-26T14:13:31.108Z,12.70
2023-03-26T14:18:51.971Z,12.50
2023-03-26T14:24:08.640Z,12.60
2023-03-26T14:29:30.684Z,12.30
2023-03-26T14:35:00.935Z,12.20
2023-03-26T14:40:40.674Z,12.00
2023-03-26T14:45:48.682Z,11.80
2023-03-26T14:51:12.182Z,11.90
2023-03-26T14:56:35.729Z,11.90
2023-03-26T15:02:15.590Z,11.70
2023-03-26T15:07:48.198Z,11.50
2023-03-26T15:13:31.421Z,11.40
2023-03-26T15:18:51.764Z,11.30
2023-03-26T15:24:40.555Z,11.40
2023-03-26T15:30:01.687Z,11.20
2023-03-26T15:35:45.304Z,11.10
2023-03-26T15:41:27.105Z,11.10
2023-03-26T15:47:10.918Z,11.10
2023-03-26T15:52:34.163Z,11.00
2023-03-26T15:58:13.696Z,11.10
2023-03-26T16:04:14.781Z,11.00
2023-03-26T16:09:43.275Z,11.00
2023-03-26T16:15:05.242Z,11.10
2023-03-26T16:20:32.636Z,11.00
2023-03-26T16:25:57.802Z,10.90
2023-03-26T16:31:23.495Z,10.70
2023-03-26T16:36:35.959Z,10.70
2023-03-26T16:41:49.927Z,10.60
2023-03-26T16:47:10.041Z,10.60
2023-03-26T16:52:20.626Z,10.50
2023-03-26T16:57:45.512Z,10.50
2023-03-26T17:03:25.595Z,10.50
2023-03-26T17:08:53.439Z,10.50
2023-03-26T17:14:12.205Z,10.40
2023-03-26T17:19:29.738Z,10.40
2023-03-26T17:24:53.160Z,10.40
2023-03-26T17:30:24.819Z,10.30
2023-03-26T17:35:47.672Z,10.30
2023-03-26T17:40:54.816Z,10.20
2023-03-26T17:46:03.028Z,10.10
2023-03-26T17:51:50.443Z,10.00
2023-03-26T17:56:55.348Z,10.00
2023-03-26T18:02:03.855Z,10.00
2023-03-26T18:07:27.723Z,10.00
2023-03-26T18:13:02.317Z,9.90
2023-03-26T18:18:22.553Z,9.90
2023-03-26T18:23:51.110Z,9.90
2023-03-26T18:29:08.254Z,9.90
2023-03-26T18:34:18.921Z,9.80
2023-03-26T18:39:20.669Z,9.80
2023-03-26T18:44:22.497Z,9.40
2023-03-26T18:49:28.464Z,9.50
2023-03-26T18:54:35.385Z,9.60
2023-03-26T18:59:40.889Z,9.50
2023-03-26T19:04:46.668Z,9.60
2023-03-26T19:09:50.535Z,9.70
2023-03-26T19:15:14.529Z,9.60
2023-03-26T19:20:27.150Z,9.50
2023-03-26T19:25:43.212Z,9.40
2023-03-26T19:30:45.498Z,9.40
2023-03-26T19:36:01.989Z,9.30
2023-03-26T19:41:04.281Z,9.20
2023-03-26T19:46:06.376Z,9.10
2023-03-26T19:51:23.089Z,9.20
2023-03-26T19:56:25.477Z,9.00
2023-03-26T20:01:29.690Z,8.90
2023-03-26T20:06:42.254Z,8.70
2023-03-26T20:11:46.998Z,8.70
2023-03-26T20:16:49.408Z,8.60
2023-03-26T20:21:57.657Z,8.50
2023-03-26T20:26:59.466Z,8.40
2023-03-26T20:32:01.528Z,8.40
2023-03-26T20:37:29.347Z,8.40
2023-03-26T20:42:31.124Z,8.50
2023-03-26T20:47:35.283Z,8.50
2023-03-26T20:52:37.278Z,8.30
2023-03-26T20:57:42.328Z,8.30
2023-03-26T21:02:44.348Z,8.30
2023-03-26T21:07:46.503Z,8.00
2023-03-26T21:13:27.269Z,8.10
2023-03-26T21:18:29.366Z,8.10
2023-03-26T21:23:46.407Z,8.10
2023-03-26T21:28:49.473Z,8.00
2023-03-26T21:33:52.197Z,8.10
2023-03-26T21:38:54.666Z,8.00
2023-03-26T21:43:56.469Z,8.00
2023-03-26T21:48:59.784Z,8.00
2023-03-26T21:54:02.045Z,8.00
2023-03-26T21:59:06.932Z,7.90
2023-03-26T22:04:42.026Z,7.80
2023-03-26T22:09:44.924Z,7.70
2023-03-26T22:14:46.808Z,7.80
2023-03-26T22:19:48.625Z,7.70
2023-03-26T22:24:50.365Z,7.80
2023-03-26T22:29:52.930Z,7.70
2023-03-26T22:34:54.688Z,7.70
2023-03-26T22:39:56.981Z,7.70
2023-03-26T22:44:58.664Z,7.60
2023-03-26T22:50:00.814Z,7.60
2023-03-26T22:55:03.319Z,7.40
2023-03-26T23:00:16.279Z,7.20
2023-03-26T23:05:18.574Z,6.90
2023-03-26T23:10:21.639Z,6.90
2023-03-26T23:15:25.883Z,6.80
2023-03-26T23:20:27.597Z,6.80
2023-03-26T23:25:30.719Z,6.70
2023-03-26T23:30:32.433Z,6.50
2023-03-26T23:35:36.053Z,6.30
2023-03-26T23:40:40.000Z,6.30
2023-03-26T23:45:47.848Z,6.20
2023-03-26T23:50:50.792Z,6.10
2023-03-26T23:55:54.167Z,6.00
